sensor_id;sensor_type;location;lat;lon;timestamp;P1;durP1;ratioP1;P2;durP2;ratioP2
18661;SDS011;61528;49.456;11.098;2023-09-30T00:01:21;7.73;;;3.97;;
18661;SDS011;61528;49.456;11.098;2023-09-30T00:03:47;7.43;;;3.80;;
18661;SDS011;61528;49.456;11.098;2023-09-30T00:06:13;9.00;;;4.27;;
18661;SDS011;61528;49.456;11.098;2023-09-30T00:08:40;8.27;;;3.90;;
18661;SDS011;61528;49.456;11.098;2023-09-30T00:11:07;7.43;;;3.63;;
18661;SDS011;61528;49.456;11.098;2023-09-30T00:13:33;6.07;;;3.47;;
18661;SDS011;61528;49.456;11.098;2023-09-30T00:15:59;7.27;;;3.67;;
18661;SDS011;61528;49.456;11.098;2023-09-30T00:18:25;7.70;;;3.73;;
18661;SDS011;61528;49.456;11.098;2023-09-30T00:20:51;6.13;;;3.57;;
18661;SDS011;61528;49.456;11.098;2023-09-30T00:23:17;6.77;;;3.60;;
18661;SDS011;61528;49.456;11.098;2023-09-30T00:25:46;10.03;;;4.30;;
18661;SDS011;61528;49.456;11.098;2023-09-30T00:28:15;7.30;;;3.80;;
18661;SDS011;61528;49.456;11.098;2023-09-30T00:30:41;7.07;;;3.77;;
18661;SDS011;61528;49.456;11.098;2023-09-30T00:33:06;8.40;;;3.50;;
18661;SDS011;61528;49.456;11.098;2023-09-30T00:35:33;7.17;;;3.53;;
18661;SDS011;61528;49.456;11.098;2023-09-30T00:37:59;7.17;;;3.33;;
18661;SDS011;61528;49.456;11.098;2023-09-30T00:40:25;6.10;;;3.43;;
18661;SDS011;61528;49.456;11.098;2023-09-30T00:42:51;8.67;;;3.37;;
18661;SDS011;61528;49.456;11.098;2023-09-30T00:45:17;6.53;;;3.60;;
18661;SDS011;61528;49.456;11.098;2023-09-30T00:47:43;5.70;;;3.27;;
18661;SDS011;61528;49.456;11.098;2023-09-30T00:50:09;6.30;;;3.07;;
18661;SDS011;61528;49.456;11.098;2023-09-30T00:52:38;6.93;;;3.50;;
18661;SDS011;61528;49.456;11.098;2023-09-30T00:55:04;6.27;;;3.53;;
18661;SDS011;61528;49.456;11.098;2023-09-30T00:57:31;8.07;;;3.43;;
18661;SDS011;61528;49.456;11.098;2023-09-30T00:59:57;6.67;;;3.37;;
18661;SDS011;61528;49.456;11.098;2023-09-30T01:02:25;7.57;;;3.60;;
18661;SDS011;61528;49.456;11.098;2023-09-30T01:04:52;7.23;;;3.70;;
18661;SDS011;61528;49.456;11.098;2023-09-30T01:07:19;7.63;;;3.70;;
18661;SDS011;61528;49.456;11.098;2023-09-30T01:09:47;7.13;;;3.50;;
18661;SDS011;61528;49.456;11.098;2023-09-30T01:12:13;6.97;;;3.47;;
18661;SDS011;61528;49.456;11.098;2023-09-30T01:14:40;6.23;;;3.27;;
18661;SDS011;61528;49.456;11.098;2023-09-30T01:17:08;7.37;;;3.57;;
18661;SDS011;61528;49.456;11.098;2023-09-30T01:19:34;7.80;;;3.63;;
18661;SDS011;61528;49.456;11.098;2023-09-30T01:22:01;6.10;;;3.30;;
18661;SDS011;61528;49.456;11.098;2023-09-30T01:24:41;5.10;;;3.03;;
18661;SDS011;61528;49.456;11.098;2023-09-30T01:27:08;6.47;;;3.40;;
18661;SDS011;61528;49.456;11.098;2023-09-30T01:29:34;7.57;;;3.13;;
18661;SDS011;61528;49.456;11.098;2023-09-30T01:32:03;8.17;;;3.73;;
18661;SDS011;61528;49.456;11.098;2023-09-30T01:34:35;6.60;;;3.40;;
18661;SDS011;61528;49.456;11.098;2023-09-30T01:37:01;4.57;;;2.90;;
18661;SDS011;61528;49.456;11.098;2023-09-30T01:39:27;6.47;;;3.80;;
18661;SDS011;61528;49.456;11.098;2023-09-30T01:41:53;8.23;;;3.53;;
18661;SDS011;61528;49.456;11.098;2023-09-30T01:44:19;7.57;;;3.90;;
18661;SDS011;61528;49.456;11.098;2023-09-30T01:46:44;6.93;;;3.37;;
18661;SDS011;61528;49.456;11.098;2023-09-30T01:49:10;6.93;;;3.50;;
18661;SDS011;61528;49.456;11.098;2023-09-30T01:51:36;7.27;;;3.63;;
18661;SDS011;61528;49.456;11.098;2023-09-30T01:54:02;6.67;;;3.83;;
18661;SDS011;61528;49.456;11.098;2023-09-30T01:56:30;6.73;;;3.37;;
18661;SDS011;61528;49.456;11.098;2023-09-30T01:58:55;7.67;;;3.60;;
18661;SDS011;61528;49.456;11.098;2023-09-30T02:01:21;6.93;;;3.50;;
18661;SDS011;61528;49.456;11.098;2023-09-30T02:03:47;6.53;;;3.40;;
18661;SDS011;61528;49.456;11.098;2023-09-30T02:06:13;5.70;;;3.40;;
18661;SDS011;61528;49.456;11.098;2023-09-30T02:08:41;8.37;;;3.80;;
18661;SDS011;61528;49.456;11.098;2023-09-30T02:11:10;9.10;;;3.70;;
18661;SDS011;61528;49.456;11.098;2023-09-30T02:13:38;8.53;;;3.33;;
18661;SDS011;61528;49.456;11.098;2023-09-30T02:16:05;8.97;;;4.07;;
18661;SDS011;61528;49.456;11.098;2023-09-30T02:18:30;6.90;;;3.60;;
18661;SDS011;61528;49.456;11.098;2023-09-30T02:20:59;7.23;;;3.57;;
18661;SDS011;61528;49.456;11.098;2023-09-30T02:23:26;6.57;;;3.77;;
18661;SDS011;61528;49.456;11.098;2023-09-30T02:25:54;7.83;;;3.90;;
18661;SDS011;61528;49.456;11.098;2023-09-30T02:28:20;9.30;;;3.83;;
18661;SDS011;61528;49.456;11.098;2023-09-30T02:30:46;6.60;;;3.87;;
18661;SDS011;61528;49.456;11.098;2023-09-30T02:33:11;6.10;;;3.30;;
18661;SDS011;61528;49.456;11.098;2023-09-30T02:35:37;7.30;;;3.60;;
18661;SDS011;61528;49.456;11.098;2023-09-30T02:38:04;8.00;;;3.60;;
18661;SDS011;61528;49.456;11.098;2023-09-30T02:40:30;6.57;;;3.43;;
18661;SDS011;61528;49.456;11.098;2023-09-30T02:42:56;7.57;;;3.63;;
18661;SDS011;61528;49.456;11.098;2023-09-30T02:45:22;6.40;;;3.80;;
18661;SDS011;61528;49.456;11.098;2023-09-30T02:47:48;8.17;;;3.80;;
18661;SDS011;61528;49.456;11.098;2023-09-30T02:50:14;6.67;;;3.40;;
18661;SDS011;61528;49.456;11.098;2023-09-30T02:52:40;5.77;;;3.40;;
18661;SDS011;61528;49.456;11.098;2023-09-30T02:55:07;4.43;;;2.90;;
18661;SDS011;61528;49.456;11.098;2023-09-30T02:57:34;5.07;;;2.50;;
18661;SDS011;61528;49.456;11.098;2023-09-30T03:00:04;5.13;;;2.57;;
18661;SDS011;61528;49.456;11.098;2023-09-30T03:02:49;5.10;;;2.70;;
18661;SDS011;61528;49.456;11.098;2023-09-30T03:05:16;3.37;;;2.20;;
18661;SDS011;61528;49.456;11.098;2023-09-30T03:07:42;3.93;;;2.30;;
18661;SDS011;61528;49.456;11.098;2023-09-30T03:10:09;3.37;;;1.90;;
18661;SDS011;61528;49.456;11.098;2023-09-30T03:12:35;3.13;;;1.77;;
18661;SDS011;61528;49.456;11.098;2023-09-30T03:15:01;2.93;;;1.80;;
18661;SDS011;61528;49.456;11.098;2023-09-30T03:17:29;2.97;;;1.73;;
18661;SDS011;61528;49.456;11.098;2023-09-30T03:19:58;3.77;;;2.00;;
18661;SDS011;61528;49.456;11.098;2023-09-30T03:22:26;3.43;;;1.90;;
18661;SDS011;61528;49.456;11.098;2023-09-30T03:24:52;3.13;;;2.10;;
18661;SDS011;61528;49.456;11.098;2023-09-30T03:27:19;2.60;;;2.07;;
18661;SDS011;61528;49.456;11.098;2023-09-30T03:29:46;3.03;;;2.20;;
18661;SDS011;61528;49.456;11.098;2023-09-30T03:32:11;3.43;;;2.27;;
18661;SDS011;61528;49.456;11.098;2023-09-30T03:34:37;5.40;;;2.20;;
18661;SDS011;61528;49.456;11.098;2023-09-30T03:37:05;4.87;;;2.40;;
18661;SDS011;61528;49.456;11.098;2023-09-30T03:39:32;4.67;;;2.57;;
18661;SDS011;61528;49.456;11.098;2023-09-30T03:41:58;3.90;;;2.30;;
18661;SDS011;61528;49.456;11.098;2023-09-30T03:44:24;4.40;;;2.40;;
18661;SDS011;61528;49.456;11.098;2023-09-30T03:46:53;8.13;;;2.57;;
18661;SDS011;61528;49.456;11.098;2023-09-30T03:49:19;4.80;;;2.33;;
18661;SDS011;61528;49.456;11.098;2023-09-30T03:51:45;4.67;;;2.73;;
18661;SDS011;61528;49.456;11.098;2023-09-30T03:54:11;4.03;;;2.77;;
18661;SDS011;61528;49.456;11.098;2023-09-30T03:56:37;5.00;;;2.60;;
18661;SDS011;61528;49.456;11.098;2023-09-30T03:59:04;5.47;;;2.50;;
18661;SDS011;61528;49.456;11.098;2023-09-30T04:01:29;5.03;;;2.70;;
18661;SDS011;61528;49.456;11.098;2023-09-30T04:03:56;3.03;;;2.00;;
18661;SDS011;61528;49.456;11.098;2023-09-30T04:06:22;5.57;;;2.50;;
18661;SDS011;61528;49.456;11.098;2023-09-30T04:08:49;4.73;;;2.10;;
18661;SDS011;61528;49.456;11.098;2023-09-30T04:11:16;5.07;;;2.27;;
18661;SDS011;61528;49.456;11.098;2023-09-30T04:16:33;8.77;;;4.57;;
18661;SDS011;61528;49.456;11.098;2023-09-30T04:19:01;4.30;;;2.30;;
18661;SDS011;61528;49.456;11.098;2023-09-30T04:21:28;4.37;;;2.33;;
18661;SDS011;61528;49.456;11.098;2023-09-30T04:23:58;3.03;;;2.07;;
18661;SDS011;61528;49.456;11.098;2023-09-30T04:26:25;2.60;;;2.00;;
18661;SDS011;61528;49.456;11.098;2023-09-30T04:28:52;2.90;;;2.43;;
18661;SDS011;61528;49.456;11.098;2023-09-30T04:31:19;3.97;;;2.10;;
18661;SDS011;61528;49.456;11.098;2023-09-30T04:36:33;6.30;;;2.20;;
18661;SDS011;61528;49.456;11.098;2023-09-30T04:39:00;3.93;;;2.70;;
18661;SDS011;61528;49.456;11.098;2023-09-30T04:41:26;4.50;;;2.40;;
18661;SDS011;61528;49.456;11.098;2023-09-30T04:43:52;5.70;;;2.97;;
18661;SDS011;61528;49.456;11.098;2023-09-30T04:46:18;4.30;;;2.60;;
18661;SDS011;61528;49.456;11.098;2023-09-30T04:48:48;3.90;;;3.03;;
18661;SDS011;61528;49.456;11.098;2023-09-30T04:51:17;5.10;;;2.53;;
18661;SDS011;61528;49.456;11.098;2023-09-30T04:53:44;2.73;;;1.63;;
18661;SDS011;61528;49.456;11.098;2023-09-30T04:56:12;3.97;;;2.20;;
18661;SDS011;61528;49.456;11.098;2023-09-30T04:58:38;4.43;;;2.60;;
18661;SDS011;61528;49.456;11.098;2023-09-30T05:01:04;4.43;;;2.40;;
18661;SDS011;61528;49.456;11.098;2023-09-30T05:03:31;5.83;;;2.40;;
18661;SDS011;61528;49.456;11.098;2023-09-30T05:05:56;5.00;;;2.27;;
18661;SDS011;61528;49.456;11.098;2023-09-30T05:08:23;5.07;;;2.80;;
18661;SDS011;61528;49.456;11.098;2023-09-30T05:10:50;6.47;;;2.40;;
18661;SDS011;61528;49.456;11.098;2023-09-30T05:13:15;3.17;;;2.37;;
18661;SDS011;61528;49.456;11.098;2023-09-30T05:15:42;3.33;;;2.37;;
18661;SDS011;61528;49.456;11.098;2023-09-30T05:18:11;3.93;;;2.30;;
18661;SDS011;61528;49.456;11.098;2023-09-30T05:20:37;5.43;;;2.77;;
18661;SDS011;61528;49.456;11.098;2023-09-30T05:23:04;3.67;;;2.37;;
18661;SDS011;61528;49.456;11.098;2023-09-30T05:25:32;4.40;;;2.37;;
18661;SDS011;61528;49.456;11.098;2023-09-30T05:27:57;5.53;;;2.40;;
18661;SDS011;61528;49.456;11.098;2023-09-30T05:30:24;4.93;;;2.33;;
18661;SDS011;61528;49.456;11.098;2023-09-30T05:32:51;3.70;;;2.50;;
18661;SDS011;61528;49.456;11.098;2023-09-30T05:35:17;4.83;;;2.50;;
18661;SDS011;61528;49.456;11.098;2023-09-30T05:37:43;3.47;;;2.47;;
18661;SDS011;61528;49.456;11.098;2023-09-30T05:40:13;3.63;;;2.60;;
18661;SDS011;61528;49.456;11.098;2023-09-30T05:42:47;3.70;;;2.30;;
18661;SDS011;61528;49.456;11.098;2023-09-30T05:45:15;5.07;;;3.03;;
18661;SDS011;61528;49.456;11.098;2023-09-30T05:47:41;4.43;;;2.40;;
18661;SDS011;61528;49.456;11.098;2023-09-30T05:50:07;4.63;;;2.77;;
18661;SDS011;61528;49.456;11.098;2023-09-30T05:52:34;5.67;;;2.50;;
18661;SDS011;61528;49.456;11.098;2023-09-30T05:55:01;3.77;;;2.50;;
18661;SDS011;61528;49.456;11.098;2023-09-30T05:57:27;3.03;;;2.57;;
18661;SDS011;61528;49.456;11.098;2023-09-30T05:59:54;3.20;;;2.23;;
18661;SDS011;61528;49.456;11.098;2023-09-30T06:02:19;4.63;;;2.53;;
18661;SDS011;61528;49.456;11.098;2023-09-30T06:04:45;4.87;;;2.63;;
18661;SDS011;61528;49.456;11.098;2023-09-30T06:07:11;4.03;;;2.63;;
18661;SDS011;61528;49.456;11.098;2023-09-30T06:09:37;4.63;;;2.60;;
18661;SDS011;61528;49.456;11.098;2023-09-30T06:12:03;3.97;;;2.60;;
18661;SDS011;61528;49.456;11.098;2023-09-30T06:14:32;3.43;;;2.60;;
18661;SDS011;61528;49.456;11.098;2023-09-30T06:16:58;4.17;;;2.70;;
18661;SDS011;61528;49.456;11.098;2023-09-30T06:19:24;4.27;;;2.80;;
18661;SDS011;61528;49.456;11.098;2023-09-30T06:21:52;4.97;;;2.97;;
18661;SDS011;61528;49.456;11.098;2023-09-30T06:24:19;4.77;;;3.40;;
18661;SDS011;61528;49.456;11.098;2023-09-30T06:26:45;8.23;;;5.07;;
18661;SDS011;61528;49.456;11.098;2023-09-30T06:29:14;6.63;;;4.70;;
18661;SDS011;61528;49.456;11.098;2023-09-30T06:31:40;10.73;;;5.10;;
18661;SDS011;61528;49.456;11.098;2023-09-30T06:34:07;7.37;;;3.00;;
18661;SDS011;61528;49.456;11.098;2023-09-30T06:36:36;5.67;;;3.10;;
18661;SDS011;61528;49.456;11.098;2023-09-30T06:39:06;6.57;;;3.53;;
18661;SDS011;61528;49.456;11.098;2023-09-30T06:41:32;5.47;;;3.00;;
18661;SDS011;61528;49.456;11.098;2023-09-30T06:43:58;5.00;;;3.20;;
18661;SDS011;61528;49.456;11.098;2023-09-30T06:46:24;4.97;;;3.27;;
18661;SDS011;61528;49.456;11.098;2023-09-30T06:48:50;6.17;;;3.53;;
18661;SDS011;61528;49.456;11.098;2023-09-30T06:51:18;5.93;;;3.80;;
18661;SDS011;61528;49.456;11.098;2023-09-30T06:53:44;6.97;;;3.80;;
18661;SDS011;61528;49.456;11.098;2023-09-30T06:56:11;7.10;;;3.40;;
18661;SDS011;61528;49.456;11.098;2023-09-30T06:58:38;6.50;;;3.20;;
18661;SDS011;61528;49.456;11.098;2023-09-30T07:01:03;6.47;;;3.30;;
18661;SDS011;61528;49.456;11.098;2023-09-30T07:03:29;5.20;;;3.40;;
18661;SDS011;61528;49.456;11.098;2023-09-30T07:05:55;5.20;;;3.40;;
18661;SDS011;61528;49.456;11.098;2023-09-30T07:08:26;4.57;;;3.27;;
18661;SDS011;61528;49.456;11.098;2023-09-30T07:10:55;6.33;;;3.63;;
18661;SDS011;61528;49.456;11.098;2023-09-30T07:13:21;4.40;;;3.40;;
18661;SDS011;61528;49.456;11.098;2023-09-30T07:15:47;5.30;;;2.83;;
18661;SDS011;61528;49.456;11.098;2023-09-30T07:18:13;4.93;;;3.50;;
18661;SDS011;61528;49.456;11.098;2023-09-30T07:20:39;4.77;;;3.10;;
18661;SDS011;61528;49.456;11.098;2023-09-30T07:23:05;5.30;;;3.60;;
18661;SDS011;61528;49.456;11.098;2023-09-30T07:25:32;5.20;;;3.10;;
18661;SDS011;61528;49.456;11.098;2023-09-30T07:27:58;5.87;;;3.50;;
18661;SDS011;61528;49.456;11.098;2023-09-30T07:30:25;4.63;;;3.33;;
18661;SDS011;61528;49.456;11.098;2023-09-30T07:32:50;6.57;;;3.60;;
18661;SDS011;61528;49.456;11.098;2023-09-30T07:35:17;5.07;;;2.87;;
18661;SDS011;61528;49.456;11.098;2023-09-30T07:37:43;4.83;;;3.30;;
18661;SDS011;61528;49.456;11.098;2023-09-30T07:40:09;5.53;;;3.07;;
18661;SDS011;61528;49.456;11.098;2023-09-30T07:42:35;6.80;;;3.23;;
18661;SDS011;61528;49.456;11.098;2023-09-30T07:45:02;6.57;;;3.30;;
18661;SDS011;61528;49.456;11.098;2023-09-30T07:47:31;6.33;;;3.10;;
18661;SDS011;61528;49.456;11.098;2023-09-30T07:49:59;5.43;;;3.23;;
18661;SDS011;61528;49.456;11.098;2023-09-30T07:52:27;6.53;;;3.40;;
18661;SDS011;61528;49.456;11.098;2023-09-30T07:54:53;4.87;;;2.97;;
18661;SDS011;61528;49.456;11.098;2023-09-30T07:57:19;6.07;;;3.27;;
18661;SDS011;61528;49.456;11.098;2023-09-30T07:59:45;4.93;;;3.00;;
18661;SDS011;61528;49.456;11.098;2023-09-30T08:02:11;5.17;;;3.10;;
18661;SDS011;61528;49.456;11.098;2023-09-30T08:04:37;7.43;;;3.00;;
18661;SDS011;61528;49.456;11.098;2023-09-30T08:07:03;5.63;;;3.03;;
18661;SDS011;61528;49.456;11.098;2023-09-30T08:09:29;9.00;;;3.57;;
18661;SDS011;61528;49.456;11.098;2023-09-30T08:11:55;6.73;;;3.10;;
18661;SDS011;61528;49.456;11.098;2023-09-30T08:14:22;6.40;;;3.20;;
18661;SDS011;61528;49.456;11.098;2023-09-30T08:16:48;5.77;;;3.37;;
18661;SDS011;61528;49.456;11.098;2023-09-30T08:19:14;5.60;;;3.40;;
18661;SDS011;61528;49.456;11.098;2023-09-30T08:21:40;5.40;;;3.13;;
18661;SDS011;61528;49.456;11.098;2023-09-30T08:24:07;5.20;;;2.83;;
18661;SDS011;61528;49.456;11.098;2023-09-30T08:26:33;4.63;;;2.40;;
18661;SDS011;61528;49.456;11.098;2023-09-30T08:29:00;7.10;;;3.20;;
18661;SDS011;61528;49.456;11.098;2023-09-30T08:31:27;7.23;;;3.27;;
18661;SDS011;61528;49.456;11.098;2023-09-30T08:33:53;4.83;;;2.90;;
18661;SDS011;61528;49.456;11.098;2023-09-30T08:36:19;4.27;;;3.23;;
18661;SDS011;61528;49.456;11.098;2023-09-30T08:38:46;5.37;;;3.00;;
18661;SDS011;61528;49.456;11.098;2023-09-30T08:41:15;7.97;;;3.17;;
18661;SDS011;61528;49.456;11.098;2023-09-30T08:43:59;4.50;;;2.40;;
18661;SDS011;61528;49.456;11.098;2023-09-30T08:46:28;5.87;;;3.03;;
18661;SDS011;61528;49.456;11.098;2023-09-30T08:48:58;7.07;;;3.23;;
18661;SDS011;61528;49.456;11.098;2023-09-30T08:51:34;6.50;;;3.13;;
18661;SDS011;61528;49.456;11.098;2023-09-30T08:54:01;5.67;;;2.83;;
18661;SDS011;61528;49.456;11.098;2023-09-30T08:56:29;5.13;;;3.17;;
18661;SDS011;61528;49.456;11.098;2023-09-30T08:58:59;4.93;;;3.00;;
18661;SDS011;61528;49.456;11.098;2023-09-30T09:01:30;5.33;;;2.80;;
18661;SDS011;61528;49.456;11.098;2023-09-30T09:03:56;4.10;;;2.60;;
18661;SDS011;61528;49.456;11.098;2023-09-30T09:06:24;5.17;;;2.67;;
18661;SDS011;61528;49.456;11.098;2023-09-30T09:08:51;6.87;;;2.60;;
18661;SDS011;61528;49.456;11.098;2023-09-30T09:11:18;5.67;;;2.60;;
18661;SDS011;61528;49.456;11.098;2023-09-30T09:13:45;5.30;;;2.50;;
18661;SDS011;61528;49.456;11.098;2023-09-30T09:16:15;7.03;;;2.83;;
18661;SDS011;61528;49.456;11.098;2023-09-30T09:18:42;4.53;;;2.77;;
18661;SDS011;61528;49.456;11.098;2023-09-30T09:21:09;6.67;;;3.50;;
18661;SDS011;61528;49.456;11.098;2023-09-30T09:23:54;6.30;;;3.53;;
18661;SDS011;61528;49.456;11.098;2023-09-30T09:28:49;4.97;;;2.63;;
18661;SDS011;61528;49.456;11.098;2023-09-30T09:31:19;4.53;;;2.63;;
18661;SDS011;61528;49.456;11.098;2023-09-30T09:33:46;4.57;;;2.40;;
18661;SDS011;61528;49.456;11.098;2023-09-30T09:36:12;3.70;;;2.40;;
18661;SDS011;61528;49.456;11.098;2023-09-30T09:38:44;7.23;;;3.03;;
18661;SDS011;61528;49.456;11.098;2023-09-30T09:41:10;5.73;;;2.70;;
18661;SDS011;61528;49.456;11.098;2023-09-30T09:43:37;7.40;;;2.90;;
18661;SDS011;61528;49.456;11.098;2023-09-30T09:46:07;5.77;;;2.80;;
18661;SDS011;61528;49.456;11.098;2023-09-30T09:48:36;5.40;;;2.53;;
18661;SDS011;61528;49.456;11.098;2023-09-30T09:51:05;6.20;;;2.57;;
18661;SDS011;61528;49.456;11.098;2023-09-30T09:53:35;5.37;;;2.73;;
18661;SDS011;61528;49.456;11.098;2023-09-30T09:56:05;5.40;;;3.00;;
18661;SDS011;61528;49.456;11.098;2023-09-30T09:58:35;4.20;;;3.10;;
18661;SDS011;61528;49.456;11.098;2023-09-30T10:01:04;4.27;;;2.80;;
18661;SDS011;61528;49.456;11.098;2023-09-30T10:03:31;3.23;;;2.40;;
18661;SDS011;61528;49.456;11.098;2023-09-30T10:05:58;4.30;;;2.40;;
18661;SDS011;61528;49.456;11.098;2023-09-30T10:08:35;4.53;;;2.60;;
18661;SDS011;61528;49.456;11.098;2023-09-30T10:11:02;7.10;;;3.10;;
18661;SDS011;61528;49.456;11.098;2023-09-30T10:16:56;6.73;;;3.27;;
18661;SDS011;61528;49.456;11.098;2023-09-30T10:19:07;5.87;;;3.23;;
18661;SDS011;61528;49.456;11.098;2023-09-30T10:21:33;3.43;;;2.60;;
18661;SDS011;61528;49.456;11.098;2023-09-30T10:26:44;5.40;;;2.67;;
18661;SDS011;61528;49.456;11.098;2023-09-30T10:29:10;4.40;;;2.70;;
18661;SDS011;61528;49.456;11.098;2023-09-30T10:31:49;6.07;;;3.33;;
18661;SDS011;61528;49.456;11.098;2023-09-30T10:34:19;4.47;;;2.77;;
18661;SDS011;61528;49.456;11.098;2023-09-30T10:36:46;5.30;;;2.70;;
18661;SDS011;61528;49.456;11.098;2023-09-30T10:39:13;4.67;;;3.10;;
18661;SDS011;61528;49.456;11.098;2023-09-30T10:51:55;5.70;;;2.90;;
18661;SDS011;61528;49.456;11.098;2023-09-30T10:54:29;5.50;;;3.20;;
18661;SDS011;61528;49.456;11.098;2023-09-30T10:56:56;6.17;;;3.00;;
18661;SDS011;61528;49.456;11.098;2023-09-30T10:59:28;5.70;;;2.80;;
18661;SDS011;61528;49.456;11.098;2023-09-30T11:01:57;6.70;;;3.03;;
18661;SDS011;61528;49.456;11.098;2023-09-30T11:04:25;5.70;;;3.13;;
18661;SDS011;61528;49.456;11.098;2023-09-30T11:06:53;6.67;;;3.13;;
18661;SDS011;61528;49.456;11.098;2023-09-30T11:09:24;7.23;;;3.00;;
18661;SDS011;61528;49.456;11.098;2023-09-30T11:11:52;5.20;;;2.80;;
18661;SDS011;61528;49.456;11.098;2023-09-30T11:17:05;4.77;;;2.70;;
18661;SDS011;61528;49.456;11.098;2023-09-30T11:19:35;7.10;;;3.60;;
18661;SDS011;61528;49.456;11.098;2023-09-30T11:22:03;4.73;;;3.00;;
18661;SDS011;61528;49.456;11.098;2023-09-30T11:24:30;6.37;;;2.70;;
18661;SDS011;61528;49.456;11.098;2023-09-30T11:27:00;5.97;;;2.67;;
18661;SDS011;61528;49.456;11.098;2023-09-30T11:29:28;5.20;;;3.53;;
18661;SDS011;61528;49.456;11.098;2023-09-30T11:34:41;4.53;;;3.10;;
18661;SDS011;61528;49.456;11.098;2023-09-30T11:37:10;4.30;;;2.80;;
18661;SDS011;61528;49.456;11.098;2023-09-30T11:39:37;4.73;;;2.67;;
18661;SDS011;61528;49.456;11.098;2023-09-30T11:42:12;4.87;;;2.57;;
18661;SDS011;61528;49.456;11.098;2023-09-30T11:44:44;4.97;;;3.20;;
18661;SDS011;61528;49.456;11.098;2023-09-30T11:47:11;4.27;;;2.90;;
18661;SDS011;61528;49.456;11.098;2023-09-30T11:49:39;4.63;;;2.57;;
18661;SDS011;61528;49.456;11.098;2023-09-30T11:52:09;5.87;;;2.80;;
18661;SDS011;61528;49.456;11.098;2023-09-30T11:54:37;4.53;;;2.67;;
18661;SDS011;61528;49.456;11.098;2023-09-30T11:57:06;5.17;;;3.30;;
18661;SDS011;61528;49.456;11.098;2023-09-30T11:59:34;5.17;;;3.03;;
18661;SDS011;61528;49.456;11.098;2023-09-30T12:02:07;5.87;;;3.43;;
18661;SDS011;61528;49.456;11.098;2023-09-30T12:04:36;4.40;;;2.80;;
18661;SDS011;61528;49.456;11.098;2023-09-30T12:07:04;5.10;;;2.90;;
18661;SDS011;61528;49.456;11.098;2023-09-30T12:09:33;5.00;;;3.00;;
18661;SDS011;61528;49.456;11.098;2023-09-30T12:12:03;5.43;;;2.50;;
18661;SDS011;61528;49.456;11.098;2023-09-30T12:14:30;6.40;;;2.63;;
18661;SDS011;61528;49.456;11.098;2023-09-30T12:16:57;4.87;;;3.30;;
18661;SDS011;61528;49.456;11.098;2023-09-30T12:19:25;4.13;;;2.77;;
18661;SDS011;61528;49.456;11.098;2023-09-30T12:21:56;4.47;;;2.90;;
18661;SDS011;61528;49.456;11.098;2023-09-30T12:24:22;4.33;;;2.67;;
18661;SDS011;61528;49.456;11.098;2023-09-30T12:26:49;5.03;;;2.90;;
18661;SDS011;61528;49.456;11.098;2023-09-30T12:29:20;4.53;;;2.93;;
18661;SDS011;61528;49.456;11.098;2023-09-30T12:31:48;4.40;;;2.90;;
18661;SDS011;61528;49.456;11.098;2023-09-30T12:34:14;5.70;;;3.10;;
18661;SDS011;61528;49.456;11.098;2023-09-30T12:36:42;5.00;;;3.17;;
18661;SDS011;61528;49.456;11.098;2023-09-30T12:39:10;4.07;;;2.93;;
18661;SDS011;61528;49.456;11.098;2023-09-30T12:41:40;5.70;;;3.13;;
18661;SDS011;61528;49.456;11.098;2023-09-30T12:44:08;5.47;;;3.20;;
18661;SDS011;61528;49.456;11.098;2023-09-30T12:46:34;6.53;;;3.20;;
18661;SDS011;61528;49.456;11.098;2023-09-30T12:49:05;4.37;;;3.00;;
18661;SDS011;61528;49.456;11.098;2023-09-30T12:51:32;4.47;;;2.83;;
18661;SDS011;61528;49.456;11.098;2023-09-30T12:53:59;6.17;;;3.17;;
18661;SDS011;61528;49.456;11.098;2023-09-30T12:56:25;6.40;;;3.13;;
18661;SDS011;61528;49.456;11.098;2023-09-30T12:58:54;6.50;;;3.03;;
18661;SDS011;61528;49.456;11.098;2023-09-30T13:01:20;4.37;;;3.10;;
18661;SDS011;61528;49.456;11.098;2023-09-30T13:03:47;4.40;;;2.93;;
18661;SDS011;61528;49.456;11.098;2023-09-30T13:06:14;4.93;;;3.23;;
18661;SDS011;61528;49.456;11.098;2023-09-30T13:08:43;5.93;;;3.20;;
18661;SDS011;61528;49.456;11.098;2023-09-30T13:11:09;6.20;;;3.27;;
18661;SDS011;61528;49.456;11.098;2023-09-30T13:13:38;3.53;;;2.67;;
18661;SDS011;61528;49.456;11.098;2023-09-30T13:16:05;6.70;;;3.10;;
18661;SDS011;61528;49.456;11.098;2023-09-30T13:18:32;5.80;;;3.30;;
18661;SDS011;61528;49.456;11.098;2023-09-30T13:20:59;4.17;;;2.93;;
18661;SDS011;61528;49.456;11.098;2023-09-30T13:23:25;5.80;;;3.10;;
18661;SDS011;61528;49.456;11.098;2023-09-30T13:25:52;6.40;;;3.17;;
18661;SDS011;61528;49.456;11.098;2023-09-30T13:28:19;5.10;;;3.17;;
18661;SDS011;61528;49.456;11.098;2023-09-30T13:30:45;4.63;;;2.90;;
18661;SDS011;61528;49.456;11.098;2023-09-30T13:33:11;5.70;;;3.57;;
18661;SDS011;61528;49.456;11.098;2023-09-30T13:35:37;4.73;;;3.03;;
18661;SDS011;61528;49.456;11.098;2023-09-30T13:38:03;6.13;;;3.40;;
18661;SDS011;61528;49.456;11.098;2023-09-30T13:40:30;5.40;;;3.23;;
18661;SDS011;61528;49.456;11.098;2023-09-30T13:42:56;7.37;;;3.43;;
18661;SDS011;61528;49.456;11.098;2023-09-30T13:45:24;7.77;;;3.40;;
18661;SDS011;61528;49.456;11.098;2023-09-30T13:47:50;7.17;;;3.70;;
18661;SDS011;61528;49.456;11.098;2023-09-30T13:50:16;8.33;;;3.33;;
18661;SDS011;61528;49.456;11.098;2023-09-30T13:52:42;5.30;;;3.37;;
18661;SDS011;61528;49.456;11.098;2023-09-30T13:55:08;6.80;;;3.47;;
18661;SDS011;61528;49.456;11.098;2023-09-30T13:57:34;5.37;;;3.50;;
18661;SDS011;61528;49.456;11.098;2023-09-30T14:00:01;6.70;;;3.53;;
18661;SDS011;61528;49.456;11.098;2023-09-30T14:02:29;6.50;;;3.30;;
18661;SDS011;61528;49.456;11.098;2023-09-30T14:04:55;7.53;;;4.60;;
18661;SDS011;61528;49.456;11.098;2023-09-30T14:07:21;6.43;;;4.13;;
18661;SDS011;61528;49.456;11.098;2023-09-30T14:09:48;5.90;;;3.83;;
18661;SDS011;61528;49.456;11.098;2023-09-30T14:12:15;6.90;;;3.97;;
18661;SDS011;61528;49.456;11.098;2023-09-30T14:14:41;6.47;;;4.30;;
18661;SDS011;61528;49.456;11.098;2023-09-30T14:17:07;6.67;;;4.17;;
18661;SDS011;61528;49.456;11.098;2023-09-30T14:19:35;7.03;;;4.27;;
18661;SDS011;61528;49.456;11.098;2023-09-30T14:22:02;7.27;;;4.10;;
18661;SDS011;61528;49.456;11.098;2023-09-30T14:24:33;6.83;;;4.00;;
18661;SDS011;61528;49.456;11.098;2023-09-30T14:27:00;7.17;;;3.83;;
18661;SDS011;61528;49.456;11.098;2023-09-30T14:29:26;7.43;;;3.93;;
18661;SDS011;61528;49.456;11.098;2023-09-30T14:31:53;7.90;;;3.57;;
18661;SDS011;61528;49.456;11.098;2023-09-30T14:34:20;5.50;;;3.40;;
18661;SDS011;61528;49.456;11.098;2023-09-30T14:36:46;7.10;;;4.00;;
18661;SDS011;61528;49.456;11.098;2023-09-30T14:41:58;7.93;;;5.10;;
18661;SDS011;61528;49.456;11.098;2023-09-30T14:44:26;6.47;;;4.37;;
18661;SDS011;61528;49.456;11.098;2023-09-30T14:46:52;7.37;;;4.20;;
18661;SDS011;61528;49.456;11.098;2023-09-30T14:49:21;5.90;;;3.97;;
18661;SDS011;61528;49.456;11.098;2023-09-30T14:51:47;7.63;;;3.70;;
18661;SDS011;61528;49.456;11.098;2023-09-30T14:54:13;6.87;;;4.00;;
18661;SDS011;61528;49.456;11.098;2023-09-30T14:56:40;7.00;;;4.10;;
18661;SDS011;61528;49.456;11.098;2023-09-30T14:59:07;8.17;;;4.37;;
18661;SDS011;61528;49.456;11.098;2023-09-30T15:01:33;7.50;;;4.13;;
18661;SDS011;61528;49.456;11.098;2023-09-30T15:04:00;7.30;;;4.20;;
18661;SDS011;61528;49.456;11.098;2023-09-30T15:06:26;8.00;;;4.13;;